Nutter Fort, West Virginia
Current Conditions -  °F | °C
As of 1:17 PM on Thursday 29 Jan 2015 (Local Time) from KCKB Reporting Station
Light Rain Light Rain  
Wind Chill: 33°   Ceiling: 4300
Heat Index: 38°   Visibility: 4mi
Dew Point: 32°   Wind: 7mph
Humidity: 79%   Direction: 190°S
Pressure: 29.89"   Gusts: NA
Location:  39.2941°N, 80.3845°W
Report Text: KCKB 291817Z 19006KT 4SM -RA FEW027 OVC043 03/00 A2989 RMK AO2 P0003 T00330000
Loading
Personal Weather Stations






























Interactive Weather Map New forecast layout! Learn more

10-Day Weather Forecast

Advertisements
Track Severe Weather on mobile